createdAt,value
2023-04-30T00:00:29.804Z,19.50
2023-04-30T00:05:53.623Z,19.90
2023-04-30T00:10:56.107Z,22.80
2023-04-30T00:15:59.029Z,19.80
2023-04-30T00:21:02.827Z,24.50
2023-04-30T00:26:05.045Z,17.40
2023-04-30T00:31:09.098Z,20.20
2023-04-30T00:36:13.132Z,20.40
2023-04-30T00:41:16.890Z,33.30
2023-04-30T00:46:21.100Z,14.90
2023-04-30T00:51:25.020Z,21.00
2023-04-30T00:56:28.999Z,15.30
2023-04-30T01:01:32.987Z,18.30
2023-04-30T01:06:36.520Z,13.00
2023-04-30T01:11:46.989Z,14.10
2023-04-30T01:17:28.784Z,12.80
2023-04-30T01:23:05.220Z,9.80
2023-04-30T01:28:17.255Z,11.70
2023-04-30T01:33:19.734Z,10.60
2023-04-30T01:38:28.668Z,12.70
2023-04-30T01:43:39.487Z,17.50
2023-04-30T01:49:12.673Z,9.30
2023-04-30T01:54:35.114Z,9.10
2023-04-30T01:59:40.290Z,11.10
2023-04-30T02:04:44.786Z,15.60
2023-04-30T02:09:47.341Z,14.50
2023-04-30T02:14:49.263Z,14.00
2023-04-30T02:19:52.467Z,17.30
2023-04-30T02:24:57.742Z,13.40
2023-04-30T02:30:01.821Z,15.30
2023-04-30T02:35:05.623Z,11.70
2023-04-30T02:40:10.670Z,16.20
2023-04-30T02:45:13.050Z,11.40
2023-04-30T02:50:16.159Z,12.50
2023-04-30T02:55:20.038Z,14.00
2023-04-30T03:00:23.426Z,16.10
2023-04-30T03:05:26.897Z,11.30
2023-04-30T03:10:31.842Z,11.80
2023-04-30T03:15:35.305Z,12.60
2023-04-30T03:20:38.803Z,15.50
2023-04-30T03:25:41.791Z,11.90
2023-04-30T03:30:45.015Z,18.50
2023-04-30T03:35:50.864Z,8.40
2023-04-30T03:40:54.030Z,9.20
2023-04-30T03:45:57.713Z,15.10
2023-04-30T03:50:59.713Z,11.30
2023-04-30T03:56:04.394Z,9.10
2023-04-30T04:01:07.805Z,12.00
2023-04-30T04:06:10.628Z,8.50
2023-04-30T04:11:13.830Z,10.90
2023-04-30T04:16:16.820Z,9.20
2023-04-30T04:21:21.598Z,11.30
2023-04-30T04:26:25.924Z,11.30
2023-04-30T04:31:31.603Z,10.40
2023-04-30T04:36:34.499Z,15.90
2023-04-30T04:41:38.043Z,9.10
2023-04-30T04:46:46.194Z,11.00
2023-04-30T04:51:49.315Z,14.80
2023-04-30T04:56:51.389Z,11.20
2023-04-30T05:01:53.535Z,16.40
2023-04-30T05:06:55.724Z,11.90
2023-04-30T05:11:57.671Z,15.30
2023-04-30T05:16:59.560Z,14.40
2023-04-30T05:22:01.393Z,10.80
2023-04-30T05:27:05.401Z,11.30
2023-04-30T05:32:08.457Z,11.20
2023-04-30T05:37:13.065Z,9.20
2023-04-30T05:42:15.423Z,8.70
2023-04-30T05:47:18.774Z,11.50
2023-04-30T05:52:21.506Z,9.20
2023-04-30T05:57:25.269Z,9.30
2023-04-30T06:02:27.701Z,7.90
2023-04-30T06:07:31.402Z,10.20
2023-04-30T06:12:34.797Z,7.90
2023-04-30T06:17:38.479Z,7.20
2023-04-30T06:22:42.515Z,9.70
2023-04-30T06:27:44.905Z,5.90
2023-04-30T06:32:47.731Z,6.80
2023-04-30T06:37:49.731Z,5.40
2023-04-30T06:42:54.908Z,9.60
2023-04-30T06:47:59.291Z,5.40
2023-04-30T06:53:02.857Z,11.20
2023-04-30T06:58:05.624Z,9.10
2023-04-30T07:03:08.107Z,4.30
2023-04-30T07:08:12.948Z,6.90
2023-04-30T07:13:16.243Z,8.60
2023-04-30T07:18:19.262Z,4.90
2023-04-30T07:23:22.069Z,6.40
2023-04-30T07:28:24.641Z,4.10
2023-04-30T07:33:27.124Z,4.70
2023-04-30T07:38:31.006Z,3.90
2023-04-30T07:43:34.920Z,7.60
2023-04-30T07:48:39.643Z,7.10
2023-04-30T07:53:44.260Z,4.60
2023-04-30T07:58:48.854Z,10.00
2023-04-30T08:03:53.407Z,8.20
2023-04-30T08:08:56.032Z,3.60
2023-04-30T08:13:58.849Z,7.10
2023-04-30T08:19:02.592Z,2.70
2023-04-30T08:24:06.249Z,3.00
2023-04-30T08:29:08.906Z,7.00
2023-04-30T08:34:11.044Z,4.90
2023-04-30T08:39:14.815Z,5.50
2023-04-30T08:44:24.066Z,4.60
2023-04-30T08:49:27.790Z,4.10
2023-04-30T08:54:35.449Z,2.10
2023-04-30T08:59:38.125Z,3.20
2023-04-30T09:04:41.482Z,7.00
2023-04-30T09:09:44.331Z,3.70
2023-04-30T09:15:06.077Z,2.90
2023-04-30T09:20:13.470Z,8.00
2023-04-30T09:25:17.315Z,3.40
2023-04-30T09:30:34.380Z,8.90
2023-04-30T09:35:39.793Z,4.80
2023-04-30T09:40:45.249Z,4.40
2023-04-30T09:45:50.892Z,6.80
2023-04-30T09:50:55.271Z,2.90
2023-04-30T09:56:01.083Z,1.70
2023-04-30T10:01:13.048Z,2.20
2023-04-30T10:06:19.410Z,1.80
2023-04-30T10:17:04.758Z,2.50
2023-04-30T10:22:08.253Z,2.90
2023-04-30T10:27:10.719Z,1.70
2023-04-30T10:32:14.102Z,2.60
2023-04-30T10:37:18.641Z,2.90
2023-04-30T10:42:21.864Z,3.70
2023-04-30T10:47:30.051Z,0.90
2023-04-30T10:52:32.087Z,5.60
2023-04-30T10:57:42.877Z,5.30
2023-04-30T11:02:48.281Z,2.40
2023-04-30T11:07:57.924Z,3.50
2023-04-30T11:13:07.079Z,5.10
2023-04-30T11:18:09.805Z,1.50
2023-04-30T11:23:24.912Z,3.40
2023-04-30T11:28:36.396Z,3.30
2023-04-30T11:33:41.213Z,2.30
2023-04-30T11:38:43.603Z,3.20
2023-04-30T11:43:46.465Z,4.70
2023-04-30T11:48:49.007Z,3.10
2023-04-30T11:53:53.065Z,3.50
2023-04-30T11:58:55.678Z,2.40
2023-04-30T12:03:58.470Z,2.90
2023-04-30T12:09:04.498Z,3.60
2023-04-30T12:14:10.244Z,6.70
2023-04-30T12:19:12.590Z,4.40
2023-04-30T12:24:19.386Z,4.90
2023-04-30T12:34:26.985Z,2.90
2023-04-30T12:39:34.299Z,2.60
2023-04-30T12:44:47.831Z,4.10
2023-04-30T12:49:50.049Z,4.90
2023-04-30T12:54:54.153Z,4.70
2023-04-30T12:59:59.093Z,7.40
2023-04-30T13:05:01.758Z,2.20
2023-04-30T13:10:05.349Z,3.30
2023-04-30T13:15:08.229Z,9.00
2023-04-30T13:20:11.591Z,8.30
2023-04-30T13:25:15.021Z,2.20
2023-04-30T13:30:19.020Z,3.40
2023-04-30T13:35:22.412Z,4.40
2023-04-30T13:40:25.800Z,2.60
2023-04-30T13:45:29.850Z,3.40
2023-04-30T13:50:32.399Z,3.70
2023-04-30T13:55:36.897Z,2.40
2023-04-30T14:00:40.119Z,9.90
2023-04-30T14:05:44.619Z,3.70
2023-04-30T14:10:49.476Z,1.60
2023-04-30T14:15:52.284Z,2.60
2023-04-30T14:20:56.793Z,2.70
2023-04-30T14:26:00.446Z,5.00
2023-04-30T14:31:04.270Z,4.90
2023-04-30T14:36:08.498Z,1.60
2023-04-30T14:41:14.494Z,2.10
2023-04-30T14:46:17.695Z,3.80
2023-04-30T14:51:21.641Z,7.00
2023-04-30T14:56:25.257Z,1.60
2023-04-30T15:01:32.669Z,2.00
2023-04-30T15:06:36.179Z,1.90
2023-04-30T15:11:39.663Z,2.90
2023-04-30T15:16:42.978Z,2.80
2023-04-30T15:21:48.387Z,1.20
2023-04-30T15:26:54.584Z,6.30
2023-04-30T15:31:59.331Z,7.10
2023-04-30T15:37:03.274Z,3.50
2023-04-30T15:42:05.643Z,1.60
2023-04-30T15:47:08.701Z,1.50
2023-04-30T15:52:11.004Z,4.30
2023-04-30T15:57:14.845Z,3.50
2023-04-30T16:02:17.753Z,9.60
2023-04-30T16:07:21.097Z,5.20
2023-04-30T16:12:24.081Z,2.70
2023-04-30T16:17:26.849Z,3.10
2023-04-30T16:22:31.177Z,1.50
2023-04-30T16:27:36.492Z,1.50
2023-04-30T16:32:39.983Z,3.10
2023-04-30T16:37:51.751Z,1.40
2023-04-30T16:43:00.497Z,1.50
2023-04-30T16:48:04.183Z,2.30
2023-04-30T16:53:10.373Z,1.80
2023-04-30T16:58:15.841Z,2.10
2023-04-30T17:03:19.238Z,5.70
2023-04-30T17:08:23.853Z,4.10
2023-04-30T17:13:26.500Z,4.90
2023-04-30T17:18:30.707Z,4.10
2023-04-30T17:23:35.063Z,2.30
2023-04-30T17:28:39.538Z,5.30
2023-04-30T17:33:50.576Z,4.60
2023-04-30T17:39:00.872Z,5.00
2023-04-30T17:44:14.326Z,5.40
2023-04-30T17:49:25.428Z,2.50
2023-04-30T17:54:31.506Z,3.50
2023-04-30T18:01:04.508Z,5.70
2023-04-30T18:06:10.272Z,2.70
2023-04-30T18:11:16.813Z,2.90
2023-04-30T18:16:25.303Z,5.80
2023-04-30T18:21:36.262Z,4.10
2023-04-30T18:26:42.732Z,3.50
2023-04-30T18:31:49.184Z,2.60
2023-04-30T18:36:57.231Z,4.00
2023-04-30T18:47:10.477Z,3.30
2023-04-30T18:52:16.389Z,2.90
2023-04-30T18:57:22.068Z,4.30
2023-04-30T19:02:29.537Z,1.90
2023-04-30T19:07:36.023Z,4.00
2023-04-30T19:12:41.990Z,4.70
2023-04-30T19:17:48.832Z,3.50
2023-04-30T19:22:56.472Z,2.30
2023-04-30T19:28:05.429Z,3.50
2023-04-30T19:33:14.806Z,2.90
2023-04-30T19:38:21.815Z,3.90
2023-04-30T19:43:27.356Z,3.60
2023-04-30T19:48:35.710Z,5.50
2023-04-30T19:53:41.314Z,5.90
2023-04-30T19:58:45.585Z,8.00
2023-04-30T20:03:49.789Z,13.30
2023-04-30T20:08:54.807Z,16.00
2023-04-30T20:14:00.960Z,11.20
2023-04-30T20:19:08.267Z,7.70
2023-04-30T20:24:13.277Z,7.60
2023-04-30T20:29:21.252Z,6.70
2023-04-30T20:39:33.494Z,5.20
2023-04-30T20:44:40.824Z,11.50
2023-04-30T20:49:46.135Z,7.40
2023-04-30T20:54:57.651Z,5.60
2023-04-30T21:00:09.335Z,4.30
2023-04-30T21:05:18.936Z,8.30
2023-04-30T21:10:23.964Z,8.40
2023-04-30T21:15:31.941Z,10.10
2023-04-30T21:20:36.454Z,8.20
2023-04-30T21:25:42.328Z,6.30
2023-04-30T21:30:48.632Z,7.20
2023-04-30T21:35:56.864Z,8.30
2023-04-30T21:41:02.511Z,7.90
2023-04-30T21:46:07.821Z,6.60
2023-04-30T21:51:15.334Z,10.70
2023-04-30T21:56:21.618Z,8.20
2023-04-30T22:01:30.492Z,23.50
2023-04-30T22:06:35.374Z,18.80
2023-04-30T22:11:39.383Z,23.20
2023-04-30T22:16:45.376Z,16.20
2023-04-30T22:21:49.999Z,16.20
2023-04-30T22:26:54.564Z,23.10
2023-04-30T22:31:59.530Z,12.60
2023-04-30T22:37:06.327Z,18.50
2023-04-30T22:42:11.790Z,19.20
2023-04-30T22:47:17.820Z,18.90
2023-04-30T22:52:23.103Z,19.70
2023-04-30T22:57:28.760Z,14.60
2023-04-30T23:02:32.795Z,14.80
2023-04-30T23:07:36.882Z,17.00
2023-04-30T23:12:41.867Z,14.80
2023-04-30T23:17:47.113Z,12.20
2023-04-30T23:22:51.254Z,11.50
2023-04-30T23:27:54.882Z,15.00
2023-04-30T23:32:59.048Z,14.50
2023-04-30T23:38:04.198Z,14.90
2023-04-30T23:43:07.964Z,16.20
2023-04-30T23:48:11.950Z,15.70
2023-04-30T23:53:17.313Z,20.30
2023-04-30T23:58:21.786Z,25.20
